createdAt,value
2022-09-25T00:01:15.833Z,36.25
2022-09-25T00:04:11.627Z,36.95
2022-09-25T00:06:46.591Z,40.85
2022-09-25T00:09:15.559Z,35.78
2022-09-25T00:11:43.678Z,36.75
2022-09-25T00:14:10.485Z,30.80
2022-09-25T00:16:38.633Z,32.88
2022-09-25T00:19:23.753Z,38.53
2022-09-25T00:21:53.009Z,36.90
2022-09-25T00:24:21.670Z,43.72
2022-09-25T00:26:48.335Z,52.15
2022-09-25T00:29:20.563Z,39.40
2022-09-25T00:31:47.406Z,39.42
2022-09-25T00:34:14.297Z,40.42
2022-09-25T00:36:42.859Z,44.35
2022-09-25T00:39:11.442Z,43.47
2022-09-25T00:41:39.026Z,45.42
2022-09-25T00:45:15.293Z,48.28
2022-09-25T00:48:07.507Z,38.15
2022-09-25T00:50:56.119Z,48.28
2022-09-25T00:53:37.054Z,44.53
2022-09-25T00:56:07.252Z,39.55
2022-09-25T00:58:39.519Z,49.65
2022-09-25T01:01:09.434Z,39.70
2022-09-25T01:03:40.006Z,41.70
2022-09-25T01:06:07.051Z,57.13
2022-09-25T01:08:35.233Z,43.58
2022-09-25T01:11:02.504Z,42.65
2022-09-25T01:13:30.058Z,48.05
2022-09-25T01:16:24.021Z,51.60
2022-09-25T01:19:07.099Z,52.23
2022-09-25T01:22:21.512Z,54.05
2022-09-25T01:25:50.075Z,52.22
2022-09-25T01:28:31.740Z,49.10
2022-09-25T01:31:14.161Z,48.92
2022-09-25T01:33:58.516Z,49.90
2022-09-25T01:36:57.857Z,44.95
2022-09-25T01:39:39.556Z,41.80
2022-09-25T01:42:44.426Z,56.15
2022-09-25T01:45:28.563Z,51.05
2022-09-25T01:48:03.618Z,43.30
2022-09-25T01:50:53.842Z,40.80
2022-09-25T01:53:31.703Z,42.00
2022-09-25T01:56:11.926Z,45.53
2022-09-25T01:59:03.559Z,40.75
2022-09-25T02:01:40.348Z,43.08
2022-09-25T02:04:28.687Z,51.90
2022-09-25T02:07:04.366Z,48.30
2022-09-25T02:09:57.496Z,42.55
2022-09-25T02:12:40.811Z,39.10
2022-09-25T02:15:19.361Z,49.33
2022-09-25T02:18:32.145Z,44.95
2022-09-25T02:21:28.828Z,37.95
2022-09-25T02:24:25.132Z,40.13
2022-09-25T02:26:56.016Z,40.30
2022-09-25T02:29:23.311Z,47.17
2022-09-25T02:32:13.091Z,49.47
2022-09-25T02:34:40.702Z,50.58
2022-09-25T02:37:14.567Z,47.35
2022-09-25T02:39:50.548Z,51.85
2022-09-25T02:42:58.750Z,49.72
2022-09-25T02:45:55.767Z,50.25
2022-09-25T02:49:14.147Z,44.22
2022-09-25T02:52:33.503Z,45.83
2022-09-25T02:55:25.374Z,47.05
2022-09-25T02:58:37.136Z,42.13
2022-09-25T03:01:11.397Z,45.70
2022-09-25T03:03:41.329Z,37.55
2022-09-25T03:06:10.354Z,38.45
2022-09-25T03:08:49.342Z,40.33
2022-09-25T03:11:21.214Z,38.75
2022-09-25T03:14:03.062Z,41.95
2022-09-25T03:16:56.530Z,37.22
2022-09-25T03:19:33.211Z,38.25
2022-09-25T03:22:00.196Z,34.97
2022-09-25T03:24:27.570Z,34.33
2022-09-25T03:26:55.589Z,35.13
2022-09-25T03:29:23.207Z,44.88
2022-09-25T03:31:49.858Z,36.38
2022-09-25T03:34:19.558Z,46.92
2022-09-25T03:36:48.910Z,46.08
2022-09-25T03:39:20.193Z,52.83
2022-09-25T03:41:47.797Z,47.83
2022-09-25T03:44:14.695Z,45.05
2022-09-25T03:46:41.356Z,38.55
2022-09-25T03:49:10.565Z,44.65
2022-09-25T03:51:37.656Z,47.67
2022-09-25T03:54:04.565Z,47.83
2022-09-25T03:56:31.947Z,47.75
2022-09-25T03:58:59.639Z,46.25
2022-09-25T04:01:28.704Z,38.53
2022-09-25T04:03:56.029Z,35.58
2022-09-25T04:06:26.574Z,38.90
2022-09-25T04:08:57.501Z,51.72
2022-09-25T04:11:27.729Z,50.97
2022-09-25T04:13:56.901Z,46.67
2022-09-25T04:16:23.650Z,48.85
2022-09-25T04:18:51.549Z,48.38
2022-09-25T04:21:18.648Z,46.53
2022-09-25T04:24:07.959Z,52.00
2022-09-25T04:26:35.696Z,47.25
2022-09-25T04:29:03.518Z,40.92
2022-09-25T04:31:32.311Z,35.25
2022-09-25T04:33:59.100Z,34.42
2022-09-25T04:36:25.755Z,36.90
2022-09-25T04:38:52.657Z,44.95
2022-09-25T04:41:20.031Z,37.15
2022-09-25T04:43:47.642Z,44.03
2022-09-25T04:46:22.206Z,40.78
2022-09-25T04:48:49.843Z,45.67
2022-09-25T04:51:16.474Z,44.58
2022-09-25T04:53:43.348Z,43.65
2022-09-25T04:56:15.952Z,44.65
2022-09-25T04:58:50.210Z,43.22
2022-09-25T05:01:20.765Z,43.42
2022-09-25T05:03:53.445Z,47.63
2022-09-25T05:06:21.056Z,46.80
2022-09-25T05:08:53.098Z,44.42
2022-09-25T05:11:19.812Z,43.30
2022-09-25T05:13:51.829Z,43.08
2022-09-25T05:16:20.250Z,37.40
2022-09-25T05:18:46.906Z,37.55
2022-09-25T05:21:13.562Z,42.85
2022-09-25T05:23:40.283Z,38.53
2022-09-25T05:26:06.889Z,40.33
2022-09-25T05:28:34.164Z,45.95
2022-09-25T05:31:03.727Z,41.22
2022-09-25T05:33:33.486Z,40.70
2022-09-25T05:36:06.999Z,41.85
2022-09-25T05:38:38.450Z,44.65
2022-09-25T05:41:08.688Z,39.20
2022-09-25T05:43:42.835Z,49.38
2022-09-25T05:48:39.071Z,40.90
2022-09-25T05:51:06.597Z,51.08
2022-09-25T05:53:33.709Z,44.10
2022-09-25T05:56:05.195Z,48.15
2022-09-25T05:58:35.224Z,41.60
2022-09-25T06:01:06.410Z,40.50
2022-09-25T06:03:33.642Z,46.47
2022-09-25T06:06:01.465Z,47.10
2022-09-25T06:08:35.532Z,41.63
2022-09-25T06:11:03.248Z,43.58
2022-09-25T06:13:34.624Z,42.88
2022-09-25T06:16:03.533Z,48.90
2022-09-25T06:18:30.230Z,50.72
2022-09-25T06:21:04.607Z,48.50
2022-09-25T06:23:32.146Z,47.28
2022-09-25T06:26:06.343Z,46.97
2022-09-25T06:31:04.305Z,42.88
2022-09-25T06:33:32.437Z,41.20
2022-09-25T06:36:02.784Z,44.13
2022-09-25T06:38:29.540Z,43.50
2022-09-25T06:41:00.607Z,43.75
2022-09-25T06:43:30.197Z,37.05
2022-09-25T06:46:04.546Z,43.00
2022-09-25T06:48:32.007Z,43.72
2022-09-25T06:51:01.142Z,41.55
2022-09-25T06:53:28.096Z,44.70
2022-09-25T06:55:59.751Z,39.72
2022-09-25T06:58:30.300Z,39.55
2022-09-25T07:00:57.691Z,41.90
2022-09-25T07:03:43.391Z,36.60
2022-09-25T07:06:24.255Z,38.47
2022-09-25T07:08:59.935Z,37.75
2022-09-25T07:11:28.410Z,35.85
2022-09-25T07:14:10.625Z,36.67
2022-09-25T07:16:37.491Z,35.42
2022-09-25T07:19:04.450Z,36.55
2022-09-25T07:21:32.105Z,35.70
2022-09-25T07:23:59.010Z,35.03
2022-09-25T07:26:30.598Z,34.63
2022-09-25T07:29:06.295Z,34.33
2022-09-25T07:31:37.939Z,34.03
2022-09-25T07:34:12.573Z,34.28
2022-09-25T07:36:42.513Z,31.10
2022-09-25T07:39:13.605Z,34.50
2022-09-25T07:41:42.759Z,33.10
2022-09-25T07:44:27.886Z,35.85
2022-09-25T07:46:55.531Z,32.00
2022-09-25T07:49:22.185Z,31.50
2022-09-25T07:51:48.871Z,30.92
2022-09-25T07:54:15.609Z,31.95
2022-09-25T07:56:43.841Z,30.88
2022-09-25T07:59:10.543Z,29.90
2022-09-25T08:01:43.289Z,31.60
2022-09-25T08:04:11.217Z,30.08
2022-09-25T08:06:38.506Z,32.60
2022-09-25T08:09:10.106Z,32.08
2022-09-25T08:11:38.184Z,31.00
2022-09-25T08:14:04.956Z,30.20
2022-09-25T08:16:31.674Z,30.13
2022-09-25T08:18:58.561Z,28.33
2022-09-25T08:21:25.486Z,27.60
2022-09-25T08:23:56.996Z,27.88
2022-09-25T08:26:23.912Z,27.20
2022-09-25T08:28:51.946Z,26.00
2022-09-25T08:31:18.929Z,28.42
2022-09-25T08:33:50.574Z,26.30
2022-09-25T08:36:18.565Z,24.63
2022-09-25T08:38:48.588Z,25.10
2022-09-25T08:41:47.295Z,24.13
2022-09-25T08:44:52.626Z,19.92
2022-09-25T08:47:48.588Z,17.80
2022-09-25T08:50:22.990Z,16.60
2022-09-25T08:53:08.696Z,17.75
2022-09-25T08:56:00.421Z,17.20
2022-09-25T08:58:33.415Z,15.82
2022-09-25T09:01:07.656Z,14.05
2022-09-25T09:03:54.820Z,14.88
2022-09-25T09:06:28.567Z,13.93
2022-09-25T09:18:46.663Z,15.40
2022-09-25T09:27:49.051Z,13.88
2022-09-25T09:50:11.851Z,15.52
2022-09-25T10:13:06.758Z,17.38
2022-09-25T10:15:43.495Z,16.70
2022-09-25T10:18:13.747Z,16.55
2022-09-25T10:20:57.107Z,16.80
2022-09-25T10:23:53.107Z,16.67
2022-09-25T10:26:33.226Z,16.52
2022-09-25T10:29:25.545Z,16.27
2022-09-25T10:32:05.672Z,16.60
2022-09-25T10:34:33.357Z,18.95
2022-09-25T10:37:21.101Z,19.60
2022-09-25T10:40:08.332Z,18.60
2022-09-25T10:42:43.368Z,20.98
2022-09-25T10:45:28.817Z,18.50
2022-09-25T10:48:13.909Z,21.35
2022-09-25T10:50:41.866Z,19.98
2022-09-25T10:53:28.894Z,20.15
2022-09-25T10:56:08.555Z,20.95
2022-09-25T10:58:59.608Z,22.27
2022-09-25T11:01:40.929Z,20.60
2022-09-25T11:04:24.983Z,20.73
2022-09-25T11:07:14.646Z,18.10
2022-09-25T11:09:46.048Z,18.13
2022-09-25T11:12:31.844Z,18.00
2022-09-25T11:15:27.236Z,18.40
2022-09-25T11:17:58.705Z,18.35
2022-09-25T11:20:32.882Z,18.48
2022-09-25T11:26:18.667Z,22.20
2022-09-25T11:29:19.170Z,19.58
2022-09-25T11:32:26.561Z,19.08
2022-09-25T11:35:21.617Z,16.98
2022-09-25T11:38:50.079Z,18.83
2022-09-25T11:41:56.209Z,18.27
2022-09-25T11:44:35.065Z,18.35
2022-09-25T11:48:00.478Z,18.83
2022-09-25T11:51:00.159Z,16.70
2022-09-25T11:54:33.958Z,12.63
2022-09-25T11:57:40.121Z,13.60
2022-09-25T12:00:41.238Z,13.88
2022-09-25T12:04:09.137Z,17.98
2022-09-25T12:07:22.359Z,16.48
2022-09-25T12:10:09.293Z,24.35
2022-09-25T12:13:50.519Z,18.92
2022-09-25T12:17:02.931Z,19.52
2022-09-25T12:20:04.886Z,20.95
2022-09-25T12:23:32.804Z,21.30
2022-09-25T12:26:39.406Z,21.55
2022-09-25T12:29:50.054Z,20.48
2022-09-25T12:33:15.255Z,21.38
2022-09-25T12:36:03.459Z,20.77
2022-09-25T12:38:49.064Z,20.13
2022-09-25T12:41:36.560Z,20.30
2022-09-25T12:44:47.222Z,19.63
2022-09-25T12:47:34.534Z,20.60
2022-09-25T12:50:20.963Z,32.20
2022-09-25T12:53:06.045Z,18.95
2022-09-25T12:55:53.547Z,18.73
2022-09-25T12:59:09.840Z,19.42
2022-09-25T13:01:53.236Z,19.60
2022-09-25T13:05:05.148Z,19.67
2022-09-25T13:08:10.255Z,17.55
2022-09-25T13:13:46.880Z,18.35
2022-09-25T13:16:16.096Z,18.50
2022-09-25T13:19:23.070Z,18.55
2022-09-25T13:21:50.390Z,18.73
2022-09-25T13:24:18.764Z,18.45
2022-09-25T13:26:56.720Z,18.92
2022-09-25T13:29:36.348Z,19.08
2022-09-25T13:32:12.973Z,18.08
2022-09-25T13:34:42.759Z,17.42
2022-09-25T13:37:15.520Z,17.00
2022-09-25T13:40:06.785Z,17.25
2022-09-25T13:42:39.681Z,16.48
2022-09-25T13:45:30.336Z,15.48
2022-09-25T13:48:10.076Z,15.13
2022-09-25T13:50:50.662Z,15.98
2022-09-25T13:53:28.138Z,15.13
2022-09-25T13:55:55.201Z,15.07
2022-09-25T13:58:26.894Z,16.08
2022-09-25T14:01:01.088Z,16.90
2022-09-25T14:03:44.688Z,17.88
2022-09-25T14:06:25.036Z,18.73
2022-09-25T14:08:58.580Z,17.98
2022-09-25T14:11:37.950Z,18.45
2022-09-25T14:14:45.767Z,16.42
2022-09-25T14:17:16.647Z,18.02
2022-09-25T14:19:52.431Z,18.45
2022-09-25T14:22:46.046Z,16.90
2022-09-25T14:25:35.032Z,14.93
2022-09-25T14:28:25.483Z,16.63
2022-09-25T14:31:31.753Z,16.88
2022-09-25T14:34:40.695Z,13.75
2022-09-25T14:37:30.284Z,14.15
2022-09-25T14:40:33.944Z,12.73
2022-09-25T14:43:53.067Z,11.27
2022-09-25T14:46:23.165Z,10.23
2022-09-25T14:49:02.516Z,9.50
2022-09-25T14:51:44.659Z,9.80
2022-09-25T14:54:20.252Z,9.38
2022-09-25T14:56:55.963Z,8.80
2022-09-25T14:59:55.884Z,8.77
2022-09-25T15:02:41.736Z,9.57
2022-09-25T15:05:26.690Z,7.22
2022-09-25T15:08:02.182Z,8.40
2022-09-25T15:10:39.077Z,8.18
2022-09-25T15:13:20.702Z,8.20
2022-09-25T15:16:22.455Z,9.25
2022-09-25T15:18:59.084Z,9.07
2022-09-25T15:21:34.408Z,8.43
2022-09-25T15:24:27.609Z,8.70
2022-09-25T15:27:06.199Z,9.07
2022-09-25T15:29:43.916Z,7.45
2022-09-25T15:32:28.286Z,7.45
2022-09-25T15:35:25.345Z,7.50
2022-09-25T15:38:13.872Z,7.20
2022-09-25T15:40:44.233Z,7.15
2022-09-25T15:43:16.070Z,6.72
2022-09-25T15:46:11.813Z,8.18
2022-09-25T15:48:54.366Z,7.38
2022-09-25T15:51:27.746Z,7.53
2022-09-25T15:54:04.140Z,8.30
2022-09-25T15:56:50.320Z,6.90
2022-09-25T16:00:07.137Z,6.53
2022-09-25T16:03:09.320Z,6.97
2022-09-25T16:05:45.917Z,7.07
2022-09-25T16:08:33.533Z,7.43
2022-09-25T16:11:26.109Z,6.20
2022-09-25T16:14:22.832Z,6.57
2022-09-25T16:16:51.623Z,6.68
2022-09-25T16:19:27.756Z,5.60
2022-09-25T16:21:55.730Z,5.88
2022-09-25T16:24:29.046Z,5.97
2022-09-25T16:27:05.611Z,6.00
2022-09-25T16:29:39.478Z,5.75
2022-09-25T16:32:17.035Z,5.50
2022-09-25T16:35:03.516Z,6.15
2022-09-25T16:37:35.685Z,6.30
2022-09-25T16:40:25.778Z,6.35
2022-09-25T16:42:58.129Z,5.57
2022-09-25T16:45:34.653Z,6.47
2022-09-25T16:48:39.377Z,5.72
2022-09-25T16:51:20.002Z,5.47
2022-09-25T16:53:50.350Z,6.38
2022-09-25T16:56:30.733Z,6.07
2022-09-25T16:59:01.946Z,5.07
2022-09-25T17:01:28.889Z,5.30
2022-09-25T17:03:59.815Z,5.82
2022-09-25T17:06:30.450Z,5.47
2022-09-25T17:09:00.065Z,5.65
2022-09-25T17:11:27.176Z,5.95
2022-09-25T17:13:55.282Z,5.65
2022-09-25T17:16:22.023Z,5.43
2022-09-25T17:18:48.830Z,5.63
2022-09-25T17:21:19.455Z,5.55
2022-09-25T17:23:48.899Z,5.28
2022-09-25T17:26:24.811Z,5.80
2022-09-25T17:28:51.793Z,4.93
2022-09-25T17:31:22.104Z,4.82
2022-09-25T17:33:54.296Z,4.53
2022-09-25T17:36:21.043Z,4.10
2022-09-25T17:38:47.780Z,4.55
2022-09-25T17:41:36.240Z,5.18
2022-09-25T17:44:09.041Z,4.80
2022-09-25T17:46:37.747Z,4.40
2022-09-25T17:49:05.634Z,4.35
2022-09-25T17:51:38.541Z,4.28
2022-09-25T17:54:06.536Z,4.22
2022-09-25T17:56:34.763Z,3.50
2022-09-25T17:59:02.329Z,4.20
2022-09-25T18:01:38.307Z,4.32
2022-09-25T18:04:22.996Z,3.95
2022-09-25T18:06:50.866Z,3.75
2022-09-25T18:09:18.087Z,4.78
2022-09-25T18:11:44.885Z,4.28
2022-09-25T18:14:16.732Z,3.47
2022-09-25T18:16:45.739Z,4.25
2022-09-25T18:19:38.661Z,3.58
2022-09-25T18:22:18.917Z,3.92
2022-09-25T18:24:59.280Z,4.20
2022-09-25T18:27:32.639Z,3.40
2022-09-25T18:30:00.017Z,3.90
2022-09-25T18:32:26.894Z,3.95
2022-09-25T18:34:53.939Z,4.05
2022-09-25T18:37:21.132Z,3.72
2022-09-25T18:39:48.210Z,4.50
2022-09-25T18:42:17.713Z,3.63
2022-09-25T18:44:51.065Z,4.53
2022-09-25T18:47:30.797Z,4.13
2022-09-25T18:49:58.151Z,5.00
2022-09-25T18:52:25.176Z,3.97
2022-09-25T18:54:55.170Z,3.92
2022-09-25T18:57:27.062Z,4.70
2022-09-25T18:59:55.638Z,4.78
2022-09-25T19:02:32.867Z,3.80
2022-09-25T19:05:00.605Z,4.55
2022-09-25T19:07:29.651Z,3.85
2022-09-25T19:10:01.757Z,4.47
2022-09-25T19:12:30.447Z,5.00
2022-09-25T19:14:57.212Z,4.32
2022-09-25T19:17:24.056Z,4.47
2022-09-25T19:19:50.879Z,4.68
2022-09-25T19:22:20.767Z,5.43
2022-09-25T19:24:52.699Z,4.40
2022-09-25T19:27:19.648Z,5.45
2022-09-25T19:29:47.827Z,5.75
2022-09-25T19:32:18.310Z,4.47
2022-09-25T19:34:46.254Z,5.10
2022-09-25T19:37:13.274Z,4.50
2022-09-25T19:39:58.332Z,5.47
2022-09-25T19:42:33.573Z,4.97
2022-09-25T19:45:01.625Z,5.05
2022-09-25T19:47:28.688Z,5.18
2022-09-25T19:49:55.358Z,4.82
2022-09-25T19:52:22.316Z,4.60
2022-09-25T19:54:49.186Z,5.60
2022-09-25T19:57:16.263Z,5.05
2022-09-25T19:59:43.004Z,5.80
2022-09-25T20:02:10.416Z,4.45
2022-09-25T20:04:37.181Z,4.70
2022-09-25T20:07:03.886Z,5.00
2022-09-25T20:09:30.479Z,4.55
2022-09-25T20:11:57.134Z,5.63
2022-09-25T20:14:27.133Z,5.40
2022-09-25T20:16:55.732Z,5.00
2022-09-25T20:19:22.636Z,5.13
2022-09-25T20:21:51.919Z,4.97
2022-09-25T20:24:20.268Z,4.60
2022-09-25T20:26:47.854Z,5.18
2022-09-25T20:29:17.214Z,4.90
2022-09-25T20:31:46.356Z,5.07
2022-09-25T20:34:21.672Z,5.03
2022-09-25T20:36:49.026Z,4.60
2022-09-25T20:39:21.559Z,4.53
2022-09-25T20:41:50.417Z,4.25
2022-09-25T20:44:17.324Z,4.90
2022-09-25T20:46:46.877Z,5.03
2022-09-25T20:49:16.446Z,5.00
2022-09-25T20:51:43.234Z,4.57
2022-09-25T20:54:10.520Z,4.50
2022-09-25T20:56:48.780Z,5.45
2022-09-25T20:59:17.752Z,4.35
2022-09-25T21:01:45.132Z,4.60
2022-09-25T21:04:12.879Z,4.50
2022-09-25T21:06:41.815Z,5.22
2022-09-25T21:09:20.394Z,5.53
2022-09-25T21:11:48.294Z,5.57
2022-09-25T21:14:21.759Z,5.95
2022-09-25T21:16:50.894Z,5.82
2022-09-25T21:19:20.982Z,6.20
2022-09-25T21:21:48.836Z,6.18
2022-09-25T21:24:19.506Z,5.93
2022-09-25T21:26:50.116Z,5.82
2022-09-25T21:29:19.999Z,6.40
2022-09-25T21:31:50.823Z,6.57
2022-09-25T21:34:19.698Z,6.93
2022-09-25T21:36:49.500Z,5.70
2022-09-25T21:39:16.600Z,6.68
2022-09-25T21:41:45.012Z,6.20
2022-09-25T21:44:17.312Z,5.70
2022-09-25T21:46:46.082Z,7.35
2022-09-25T21:49:21.545Z,6.03
2022-09-25T21:51:49.886Z,6.85
2022-09-25T21:54:17.882Z,6.97
2022-09-25T21:56:45.600Z,6.80
2022-09-25T21:59:12.981Z,6.63
2022-09-25T22:01:40.771Z,6.70
2022-09-25T22:04:13.330Z,6.03
2022-09-25T22:06:47.852Z,5.80
2022-09-25T22:09:23.352Z,6.70
2022-09-25T22:11:52.367Z,6.20
2022-09-25T22:14:22.136Z,7.20
2022-09-25T22:16:52.689Z,5.53
2022-09-25T22:19:28.453Z,5.50
2022-09-25T22:21:59.100Z,5.68
2022-09-25T22:24:27.131Z,6.60
2022-09-25T22:26:57.320Z,5.80
2022-09-25T22:29:24.768Z,5.57
2022-09-25T22:31:52.629Z,5.40
2022-09-25T22:34:29.801Z,5.22
2022-09-25T22:36:59.965Z,5.43
2022-09-25T22:39:29.426Z,5.47
2022-09-25T22:41:57.143Z,5.97
2022-09-25T22:44:25.448Z,6.20
2022-09-25T22:46:55.116Z,5.53
2022-09-25T22:49:22.035Z,5.60
2022-09-25T22:51:48.804Z,5.25
2022-09-25T22:54:15.803Z,4.93
2022-09-25T22:56:46.496Z,5.20
2022-09-25T22:59:21.330Z,5.65
2022-09-25T23:01:54.182Z,6.32
2022-09-25T23:04:24.795Z,5.47
2022-09-25T23:06:52.853Z,5.43
2022-09-25T23:09:26.118Z,4.72
2022-09-25T23:11:56.107Z,4.60
2022-09-25T23:14:30.014Z,4.78
2022-09-25T23:16:58.490Z,6.13
2022-09-25T23:19:26.163Z,4.97
2022-09-25T23:21:54.853Z,5.13
2022-09-25T23:24:23.493Z,7.40
2022-09-25T23:26:51.492Z,5.35
2022-09-25T23:29:22.185Z,5.03
2022-09-25T23:31:50.353Z,5.43
2022-09-25T23:34:18.679Z,4.90
2022-09-25T23:36:54.687Z,5.85
2022-09-25T23:39:21.507Z,5.70
2022-09-25T23:41:48.518Z,6.65
2022-09-25T23:44:15.284Z,5.40
2022-09-25T23:46:46.059Z,6.38
2022-09-25T23:49:13.374Z,5.40
2022-09-25T23:51:40.728Z,5.15
2022-09-25T23:54:07.770Z,5.78
2022-09-25T23:56:38.600Z,5.50
2022-09-25T23:59:05.541Z,5.18
